Time;durP1;ratioP1;P1;durP2;ratioP2;P2;SDS_P1;SDS_P2;PMS_P1;PMS_P2;Temp;Humidity;BMP_temperature;BMP_pressure;BME280_temperature;BME280_humidity;BME280_pressure;Samples;Min_cycle;Max_cycle;Signal;HPM_P1;HPM_P2
2023/07/14 00:00:39;;;;;;;810.13;502.35;;;;;;;;;;5024617;28;20436;-65
2023/07/14 00:03:07;;;;;;;811.47;511.70;;;;;;;;;;5018502;28;20903;-65
2023/07/14 00:05:35;;;;;;;840.78;525.00;;;;;;;;;;5031618;28;20432;-65
2023/07/14 00:08:06;;;;;;;802.43;505.10;;;;;;;;;;5038800;28;20523;-66
2023/07/14 00:10:36;;;;;;;804.23;505.53;;;;;;;;;;5027415;28;21514;-65
2023/07/14 00:13:05;;;;;;;813.42;524.75;;;;;;;;;;5025225;28;20929;-66
2023/07/14 00:15:34;;;;;;;801.80;499.15;;;;;;;;;;5022079;28;20782;-66
2023/07/14 00:18:23;;;;;;;801.22;496.35;;;;;;;;;;5032891;28;20806;-66
2023/07/14 00:20:51;;;;;;;811.03;513.60;;;;;;;;;;5032919;28;25150;-65
2023/07/14 00:23:18;;;;;;;800.78;486.50;;;;;;;;;;5036373;28;20431;-65
2023/07/14 00:25:45;;;;;;;793.50;491.70;;;;;;;;;;5033261;28;20482;-65
2023/07/14 00:28:20;;;;;;;805.47;531.47;;;;;;;;;;5034454;28;20429;-65
2023/07/14 00:30:49;;;;;;;798.28;493.23;;;;;;;;;;5028728;28;20857;-66
2023/07/14 00:33:18;;;;;;;798.78;489.83;;;;;;;;;;5036045;28;20448;-65
2023/07/14 00:35:47;;;;;;;795.15;495.25;;;;;;;;;;5031372;28;20924;-66
2023/07/14 00:38:15;;;;;;;792.97;498.85;;;;;;;;;;5033700;28;20437;-66
2023/07/14 00:40:43;;;;;;;793.92;496.05;;;;;;;;;;5012411;28;20599;-65
2023/07/14 00:43:31;;;;;;;796.17;487.75;;;;;;;;;;5025534;28;20906;-66
2023/07/14 00:45:58;;;;;;;803.88;506.30;;;;;;;;;;5027993;28;20462;-66
2023/07/14 00:48:27;;;;;;;800.38;509.33;;;;;;;;;;5024369;28;20426;-65
2023/07/14 00:51:08;;;;;;;805.20;489.40;;;;;;;;;;5027392;28;20532;-65
2023/07/14 00:53:37;;;;;;;806.40;494.15;;;;;;;;;;5031714;28;20482;-65
2023/07/14 00:56:12;;;;;;;804.53;494.25;;;;;;;;;;5037645;28;20759;-66
2023/07/14 00:58:41;;;;;;;804.45;493.95;;;;;;;;;;5016037;28;20488;-66
2023/07/14 01:01:12;;;;;;;796.90;492.60;;;;;;;;;;5032648;28;20426;-66
2023/07/14 01:03:41;;;;;;;794.50;507.20;;;;;;;;;;5031582;28;20439;-65
2023/07/14 01:06:11;;;;;;;801.17;506.38;;;;;;;;;;5027652;28;20456;-65
2023/07/14 01:09:00;;;;;;;793.03;492.27;;;;;;;;;;5023932;28;20451;-66
2023/07/14 01:11:41;;;;;;;792.30;515.80;;;;;;;;;;5031796;28;20801;-65
2023/07/14 01:14:13;;;;;;;795.42;511.73;;;;;;;;;;5035130;28;20429;-65
2023/07/14 01:16:41;;;;;;;795.00;523.87;;;;;;;;;;5036108;28;20522;-65
2023/07/14 01:19:31;;;;;;;792.92;526.35;;;;;;;;;;5030796;28;20517;-65
2023/07/14 01:22:11;;;;;;;790.60;507.63;;;;;;;;;;5034204;28;20508;-65
2023/07/14 01:24:41;;;;;;;791.08;509.45;;;;;;;;;;5038039;28;20453;-66
2023/07/14 01:27:11;;;;;;;785.78;492.40;;;;;;;;;;5011513;28;20432;-65
2023/07/14 01:29:39;;;;;;;788.67;502.10;;;;;;;;;;5034363;28;21214;-65
2023/07/14 01:32:15;;;;;;;790.25;508.48;;;;;;;;;;5036419;28;20912;-65
2023/07/14 01:34:43;;;;;;;798.33;515.50;;;;;;;;;;5013573;28;20444;-66
2023/07/14 01:37:11;;;;;;;796.75;513.58;;;;;;;;;;5038934;28;20512;-65
2023/07/14 01:39:39;;;;;;;799.13;502.27;;;;;;;;;;5029745;28;20511;-65
2023/07/14 01:42:08;;;;;;;794.70;506.27;;;;;;;;;;5028431;28;20438;-65
2023/07/14 01:44:36;;;;;;;799.13;514.37;;;;;;;;;;5029497;28;20507;-65
2023/07/14 01:47:05;;;;;;;793.90;512.53;;;;;;;;;;5040403;28;20994;-66
2023/07/14 01:49:37;;;;;;;797.03;512.78;;;;;;;;;;5036284;28;20525;-66
2023/07/14 01:52:07;;;;;;;803.75;521.63;;;;;;;;;;5038914;28;20429;-65
2023/07/14 01:54:43;;;;;;;804.08;523.65;;;;;;;;;;5023497;28;20437;-65
2023/07/14 01:57:12;;;;;;;805.67;524.75;;;;;;;;;;5022260;28;20510;-66
2023/07/14 01:59:42;;;;;;;804.53;525.58;;;;;;;;;;5030001;28;21106;-66
2023/07/14 02:02:13;;;;;;;798.33;525.72;;;;;;;;;;5025597;28;20949;-65
2023/07/14 02:04:40;;;;;;;803.70;526.50;;;;;;;;;;5020450;28;20470;-66
2023/07/14 02:07:12;;;;;;;797.65;519.03;;;;;;;;;;5040309;28;20977;-66
2023/07/14 02:09:40;;;;;;;803.00;526.50;;;;;;;;;;5027155;28;20551;-66
2023/07/14 02:12:12;;;;;;;801.35;530.25;;;;;;;;;;5035507;28;20832;-65
2023/07/14 02:15:01;;;;;;;802.70;528.38;;;;;;;;;;5029156;28;20813;-65
2023/07/14 02:17:33;;;;;;;796.30;520.00;;;;;;;;;;5032183;28;25173;-65
2023/07/14 02:20:03;;;;;;;798.57;518.13;;;;;;;;;;5020868;28;21203;-65
2023/07/14 02:22:31;;;;;;;795.78;512.40;;;;;;;;;;5036973;28;20441;-65
2023/07/14 02:24:59;;;;;;;799.95;498.25;;;;;;;;;;5035448;28;20436;-65
2023/07/14 02:27:26;;;;;;;803.80;519.13;;;;;;;;;;5023896;28;20513;-65
2023/07/14 02:29:56;;;;;;;802.65;510.92;;;;;;;;;;5036083;28;20457;-66
2023/07/14 02:32:27;;;;;;;801.00;496.20;;;;;;;;;;5013508;28;20447;-66
2023/07/14 02:34:57;;;;;;;802.95;504.33;;;;;;;;;;5027299;28;20435;-66
2023/07/14 02:38:00;;;;;;;801.67;505.73;;;;;;;;;;5028418;28;20444;-66
2023/07/14 02:40:36;;;;;;;804.47;509.02;;;;;;;;;;5032981;28;25107;-66
2023/07/14 02:43:08;;;;;;;799.88;502.20;;;;;;;;;;5017879;28;25108;-66
2023/07/14 02:45:39;;;;;;;799.05;501.25;;;;;;;;;;5029356;28;20930;-66
2023/07/14 02:48:11;;;;;;;800.03;496.98;;;;;;;;;;5028882;28;20435;-66
2023/07/14 02:50:38;;;;;;;818.28;503.90;;;;;;;;;;5025454;28;20459;-66
2023/07/14 02:53:05;;;;;;;796.20;516.17;;;;;;;;;;5027690;28;20525;-66
2023/07/14 02:55:32;;;;;;;791.05;493.25;;;;;;;;;;5020467;28;20446;-65
2023/07/14 02:58:00;;;;;;;794.40;503.15;;;;;;;;;;5026962;28;20428;-64
2023/07/14 03:00:27;;;;;;;792.70;519.43;;;;;;;;;;5013675;28;20431;-65
2023/07/14 03:02:54;;;;;;;786.43;499.27;;;;;;;;;;5023345;28;20432;-65
2023/07/14 03:05:22;;;;;;;785.90;492.67;;;;;;;;;;5028583;28;20485;-64
2023/07/14 03:07:55;;;;;;;785.38;496.52;;;;;;;;;;5009889;28;20435;-65
2023/07/14 03:10:22;;;;;;;787.27;487.93;;;;;;;;;;5027917;28;20598;-64
2023/07/14 03:12:53;;;;;;;784.22;493.58;;;;;;;;;;5026661;28;20446;-64
2023/07/14 03:15:21;;;;;;;786.08;488.38;;;;;;;;;;5014046;28;20432;-65
2023/07/14 03:17:48;;;;;;;790.67;500.60;;;;;;;;;;5023322;28;20438;-64
2023/07/14 03:20:15;;;;;;;786.78;492.88;;;;;;;;;;5019279;28;20427;-65
2023/07/14 03:22:43;;;;;;;794.65;507.08;;;;;;;;;;5030432;28;20467;-65
2023/07/14 03:25:10;;;;;;;791.67;497.55;;;;;;;;;;5031297;28;20491;-65
2023/07/14 03:27:41;;;;;;;799.30;492.60;;;;;;;;;;5027572;28;20438;-65
2023/07/14 03:30:08;;;;;;;795.67;493.73;;;;;;;;;;5023425;28;20466;-64
2023/07/14 03:32:36;;;;;;;798.50;502.77;;;;;;;;;;5020235;28;20441;-64
2023/07/14 03:35:03;;;;;;;803.25;550.83;;;;;;;;;;5025975;28;20962;-64
2023/07/14 03:37:31;;;;;;;791.10;501.95;;;;;;;;;;5023476;28;20899;-65
2023/07/14 03:39:58;;;;;;;791.65;490.08;;;;;;;;;;5026801;28;20430;-64
2023/07/14 03:42:25;;;;;;;799.30;511.90;;;;;;;;;;5027703;28;20531;-65
2023/07/14 03:44:53;;;;;;;791.40;493.30;;;;;;;;;;5026661;28;20469;-64
2023/07/14 03:47:20;;;;;;;795.60;495.08;;;;;;;;;;5024355;28;20950;-64
2023/07/14 03:49:47;;;;;;;797.95;489.45;;;;;;;;;;5033229;28;20425;-65
2023/07/14 03:52:14;;;;;;;793.22;495.60;;;;;;;;;;5026936;28;20942;-64
2023/07/14 03:54:41;;;;;;;793.93;498.27;;;;;;;;;;5017344;28;20578;-65
2023/07/14 03:57:09;;;;;;;789.30;491.20;;;;;;;;;;5027575;28;20520;-65
2023/07/14 03:59:36;;;;;;;793.33;496.77;;;;;;;;;;5027168;28;20914;-64
2023/07/14 04:02:03;;;;;;;793.77;493.67;;;;;;;;;;5010846;28;20428;-64
2023/07/14 04:04:30;;;;;;;794.60;501.60;;;;;;;;;;5032931;28;20462;-64
2023/07/14 04:06:57;;;;;;;790.47;498.70;;;;;;;;;;5025337;28;20506;-65
2023/07/14 04:09:28;;;;;;;789.90;486.15;;;;;;;;;;5028029;28;20920;-64
2023/07/14 04:11:55;;;;;;;789.53;493.45;;;;;;;;;;5031499;28;20426;-64
2023/07/14 04:14:22;;;;;;;790.58;500.02;;;;;;;;;;5018831;28;20931;-64
2023/07/14 04:16:49;;;;;;;785.88;480.60;;;;;;;;;;5028536;28;20967;-64
2023/07/14 04:19:17;;;;;;;788.90;489.30;;;;;;;;;;5021817;28;20639;-64
2023/07/14 04:21:44;;;;;;;794.63;501.45;;;;;;;;;;5026984;28;20469;-64
2023/07/14 04:24:11;;;;;;;790.67;498.40;;;;;;;;;;5022586;28;20428;-64
2023/07/14 04:26:40;;;;;;;794.65;521.50;;;;;;;;;;5027729;28;20768;-65
2023/07/14 04:29:11;;;;;;;782.30;470.60;;;;;;;;;;5019981;28;20439;-64
2023/07/14 04:31:38;;;;;;;790.15;489.83;;;;;;;;;;5005697;28;20477;-64
2023/07/14 04:34:06;;;;;;;790.38;516.80;;;;;;;;;;5026007;28;21026;-64
2023/07/14 04:36:33;;;;;;;789.03;512.67;;;;;;;;;;5025230;28;20450;-64
2023/07/14 04:39:04;;;;;;;789.72;504.30;;;;;;;;;;5020079;28;20515;-64
2023/07/14 04:41:35;;;;;;;801.63;500.08;;;;;;;;;;5021498;28;20429;-64
2023/07/14 04:44:07;;;;;;;814.22;508.52;;;;;;;;;;5022866;28;20431;-65
2023/07/14 04:46:34;;;;;;;811.25;518.47;;;;;;;;;;5024180;28;20434;-65
2023/07/14 04:49:02;;;;;;;836.67;549.05;;;;;;;;;;5030221;28;20868;-65
2023/07/14 04:51:29;;;;;;;841.15;557.05;;;;;;;;;;5023584;28;20443;-65
2023/07/14 04:53:56;;;;;;;818.67;595.63;;;;;;;;;;5020779;28;20940;-65
2023/07/14 04:56:24;;;;;;;842.17;601.05;;;;;;;;;;5009513;28;20489;-65
2023/07/14 04:58:51;;;;;;;827.65;611.40;;;;;;;;;;5016682;28;21164;-65
2023/07/14 05:01:25;;;;;;;834.67;607.67;;;;;;;;;;5024411;28;20526;-65
2023/07/14 05:03:52;;;;;;;829.45;616.40;;;;;;;;;;5024288;28;20430;-65
2023/07/14 05:06:19;;;;;;;836.97;605.47;;;;;;;;;;5025133;28;20562;-65
2023/07/14 05:08:46;;;;;;;858.13;615.75;;;;;;;;;;5019073;28;20438;-65
2023/07/14 05:11:16;;;;;;;828.13;607.65;;;;;;;;;;5016644;28;20448;-61
2023/07/14 05:13:43;;;;;;;837.37;602.47;;;;;;;;;;5029607;28;20480;-66
2023/07/14 05:16:10;;;;;;;848.30;603.55;;;;;;;;;;5027691;28;20439;-62
2023/07/14 05:18:38;;;;;;;818.95;602.88;;;;;;;;;;5021568;28;20435;-61
2023/07/14 05:21:08;;;;;;;849.13;603.05;;;;;;;;;;5032513;28;20426;-61
2023/07/14 05:23:35;;;;;;;833.15;627.72;;;;;;;;;;5028325;28;20483;-61
2023/07/14 05:26:03;;;;;;;830.22;642.20;;;;;;;;;;5033884;28;20430;-62
2023/07/14 05:28:33;;;;;;;841.42;651.75;;;;;;;;;;5026091;28;20434;-62
2023/07/14 05:31:00;;;;;;;845.00;635.53;;;;;;;;;;5003555;28;20435;-62
2023/07/14 05:33:30;;;;;;;858.40;632.00;;;;;;;;;;5024668;28;20528;-61
2023/07/14 05:35:57;;;;;;;869.08;634.53;;;;;;;;;;5024568;28;20470;-61
2023/07/14 05:38:26;;;;;;;874.88;646.65;;;;;;;;;;5027750;28;20820;-61
2023/07/14 05:40:57;;;;;;;925.58;742.95;;;;;;;;;;5024677;28;20463;-61
2023/07/14 05:43:27;;;;;;;932.70;647.78;;;;;;;;;;5041049;28;20464;-61
2023/07/14 05:45:55;;;;;;;896.17;671.08;;;;;;;;;;5046379;28;20508;-61
2023/07/14 05:48:22;;;;;;;867.25;671.88;;;;;;;;;;5020216;28;20511;-61
2023/07/14 05:50:49;;;;;;;906.53;683.30;;;;;;;;;;5012310;28;20790;-61
2023/07/14 05:53:17;;;;;;;887.83;674.85;;;;;;;;;;5026202;28;20484;-61
2023/07/14 05:55:45;;;;;;;859.80;676.55;;;;;;;;;;5034429;28;20429;-61
2023/07/14 05:58:12;;;;;;;868.50;673.83;;;;;;;;;;5023934;28;20557;-62
2023/07/14 06:00:39;;;;;;;861.50;658.00;;;;;;;;;;5023009;28;20955;-62
2023/07/14 06:03:10;;;;;;;873.58;676.58;;;;;;;;;;5028849;28;20448;-62
2023/07/14 06:05:41;;;;;;;877.15;665.03;;;;;;;;;;5029456;28;20429;-62
2023/07/14 06:08:08;;;;;;;863.92;660.17;;;;;;;;;;5028298;28;20533;-62
2023/07/14 06:10:36;;;;;;;854.03;651.00;;;;;;;;;;5010635;28;20472;-61
2023/07/14 06:13:06;;;;;;;864.70;662.75;;;;;;;;;;5025898;28;20877;-61
2023/07/14 06:15:33;;;;;;;868.80;661.90;;;;;;;;;;5034934;28;20429;-62
2023/07/14 06:18:00;;;;;;;867.13;669.43;;;;;;;;;;5006741;28;20520;-62
2023/07/14 06:20:31;;;;;;;878.50;661.38;;;;;;;;;;5030022;28;20433;-62
2023/07/14 06:22:58;;;;;;;873.38;629.40;;;;;;;;;;5005811;28;20445;-61
2023/07/14 06:25:29;;;;;;;879.97;651.13;;;;;;;;;;5016558;28;20489;-61
2023/07/14 06:27:58;;;;;;;903.42;675.75;;;;;;;;;;5021027;28;20514;-61
2023/07/14 06:30:26;;;;;;;931.47;730.38;;;;;;;;;;5025076;28;20437;-62
2023/07/14 06:32:53;;;;;;;924.08;716.60;;;;;;;;;;5020466;28;20435;-62
2023/07/14 06:35:23;;;;;;;946.43;761.13;;;;;;;;;;5028982;28;20426;-62
2023/07/14 06:37:50;;;;;;;940.80;763.05;;;;;;;;;;5006182;28;21706;-61
2023/07/14 06:40:18;;;;;;;961.78;784.65;;;;;;;;;;5024379;28;20910;-61
2023/07/14 06:42:45;;;;;;;976.25;811.05;;;;;;;;;;5031252;28;20457;-61
2023/07/14 06:45:13;;;;;;;919.60;742.85;;;;;;;;;;5000620;28;20488;-61
2023/07/14 06:47:42;;;;;;;936.42;768.50;;;;;;;;;;5024139;28;20618;-61
2023/07/14 06:50:09;;;;;;;915.25;741.63;;;;;;;;;;5018962;28;20441;-61
2023/07/14 06:52:37;;;;;;;910.53;727.83;;;;;;;;;;5017610;28;20832;-61
2023/07/14 06:55:06;;;;;;;893.33;696.40;;;;;;;;;;5020967;28;20518;-62
2023/07/14 06:57:33;;;;;;;896.83;696.75;;;;;;;;;;5022677;28;20431;-62
2023/07/14 07:00:00;;;;;;;914.90;719.50;;;;;;;;;;5026209;28;20441;-62
2023/07/14 07:02:31;;;;;;;895.33;696.80;;;;;;;;;;5023780;28;20530;-61
2023/07/14 07:04:58;;;;;;;916.03;721.47;;;;;;;;;;5024633;28;20434;-62
2023/07/14 07:07:25;;;;;;;912.00;717.57;;;;;;;;;;5025769;28;20429;-62
2023/07/14 07:09:56;;;;;;;906.17;715.33;;;;;;;;;;5027193;28;20784;-61
2023/07/14 07:12:23;;;;;;;910.78;722.53;;;;;;;;;;5027301;28;20439;-62
2023/07/14 07:14:51;;;;;;;922.28;743.50;;;;;;;;;;5028616;28;20583;-61
2023/07/14 07:17:18;;;;;;;925.17;749.47;;;;;;;;;;5027076;28;20530;-61
2023/07/14 07:19:45;;;;;;;921.28;752.15;;;;;;;;;;5020782;28;20436;-61
2023/07/14 07:22:13;;;;;;;931.95;771.38;;;;;;;;;;5015250;28;20459;-61
2023/07/14 07:24:40;;;;;;;963.20;820.10;;;;;;;;;;5024356;28;20422;-61
2023/07/14 07:27:07;;;;;;;990.83;861.83;;;;;;;;;;5025654;28;20468;-60
2023/07/14 07:29:34;;;;;;;980.07;850.80;;;;;;;;;;5028606;28;20857;-61
2023/07/14 07:32:03;;;;;;;974.33;842.33;;;;;;;;;;5021605;28;20439;-61
2023/07/14 07:34:30;;;;;;;984.10;857.92;;;;;;;;;;5020065;28;20426;-61
2023/07/14 07:36:57;;;;;;;988.88;863.15;;;;;;;;;;5024620;28;20430;-61
2023/07/14 07:39:24;;;;;;;984.75;858.20;;;;;;;;;;5024960;28;20501;-62
2023/07/14 07:41:52;;;;;;;982.05;867.08;;;;;;;;;;5039980;28;20453;-64
2023/07/14 07:44:19;;;;;;;981.60;868.92;;;;;;;;;;5030770;28;20450;-63
2023/07/14 07:46:46;;;;;;;985.63;870.67;;;;;;;;;;5016442;28;20831;-65
2023/07/14 07:49:16;;;;;;;1003.80;877.73;;;;;;;;;;5024788;28;20811;-66
2023/07/14 07:51:43;;;;;;;991.58;864.00;;;;;;;;;;5023608;28;20435;-63
2023/07/14 07:54:11;;;;;;;1004.20;879.22;;;;;;;;;;5034218;28;20437;-65
2023/07/14 07:56:42;;;;;;;1001.70;877.67;;;;;;;;;;5032974;28;20995;-63
2023/07/14 07:59:15;;;;;;;978.20;848.42;;;;;;;;;;5025290;28;20438;-63
2023/07/14 08:01:43;;;;;;;960.47;820.90;;;;;;;;;;5024013;28;20524;-63
2023/07/14 08:04:11;;;;;;;953.67;813.72;;;;;;;;;;5027559;28;20443;-64
2023/07/14 08:06:38;;;;;;;935.90;787.65;;;;;;;;;;5009035;28;20534;-63
2023/07/14 08:09:06;;;;;;;942.20;792.25;;;;;;;;;;5016969;28;20919;-63
2023/07/14 08:11:35;;;;;;;992.78;862.08;;;;;;;;;;5024785;28;20474;-63
2023/07/14 08:14:03;;;;;;;1001.42;878.58;;;;;;;;;;5033550;28;20525;-63
2023/07/14 08:16:33;;;;;;;1002.58;878.88;;;;;;;;;;5028024;28;20928;-63
2023/07/14 08:19:01;;;;;;;1004.95;884.28;;;;;;;;;;5023992;28;20434;-63
2023/07/14 08:21:30;;;;;;;1013.28;897.00;;;;;;;;;;5014453;28;20429;-64
2023/07/14 08:23:58;;;;;;;1017.40;904.77;;;;;;;;;;5036917;28;20438;-63
2023/07/14 08:26:27;;;;;;;1053.32;938.88;;;;;;;;;;5026816;28;20468;-64
2023/07/14 08:28:55;;;;;;;1069.18;954.17;;;;;;;;;;5025054;28;20489;-64
2023/07/14 08:31:22;;;;;;;1058.35;944.10;;;;;;;;;;5022029;28;20490;-65
2023/07/14 08:33:51;;;;;;;1056.95;941.45;;;;;;;;;;5015952;28;20435;-63
2023/07/14 08:36:21;;;;;;;1051.93;937.93;;;;;;;;;;5022420;28;20585;-65
2023/07/14 08:38:49;;;;;;;1063.88;950.08;;;;;;;;;;5023087;28;21000;-63
2023/07/14 08:41:25;;;;;;;957.17;826.15;;;;;;;;;;5023841;28;20430;-63
2023/07/14 08:43:59;;;;;;;1041.25;929.00;;;;;;;;;;5003614;28;21010;-64
2023/07/14 08:46:46;;;;;;;1056.75;943.35;;;;;;;;;;5024286;28;21027;-64
2023/07/14 08:49:23;;;;;;;1037.32;925.13;;;;;;;;;;5019562;28;20490;-63
2023/07/14 08:52:01;;;;;;;1034.50;922.35;;;;;;;;;;5029188;28;20584;-64
2023/07/14 08:54:32;;;;;;;1041.72;929.22;;;;;;;;;;5030084;28;20459;-65
2023/07/14 08:56:59;;;;;;;1023.63;912.22;;;;;;;;;;5034359;28;20437;-64
2023/07/14 08:59:28;;;;;;;1023.40;911.40;;;;;;;;;;5004568;28;20441;-63
2023/07/14 09:01:56;;;;;;;1023.00;911.03;;;;;;;;;;5019705;28;20862;-64
2023/07/14 09:04:28;;;;;;;1017.83;905.47;;;;;;;;;;5024493;28;21119;-63
2023/07/14 09:06:56;;;;;;;1006.30;895.05;;;;;;;;;;5024436;28;20442;-65
2023/07/14 09:09:34;;;;;;;997.85;887.22;;;;;;;;;;5025563;28;20434;-65
2023/07/14 09:12:19;;;;;;;997.38;879.83;;;;;;;;;;5028954;28;20439;-65
2023/07/14 09:14:52;;;;;;;996.90;882.38;;;;;;;;;;5035860;28;20432;-64
2023/07/14 09:17:20;;;;;;;1007.30;894.83;;;;;;;;;;5028728;28;20445;-64
2023/07/14 09:20:25;;;;;;;1021.28;909.20;;;;;;;;;;5037182;28;20518;-64
2023/07/14 09:22:55;;;;;;;1011.72;899.92;;;;;;;;;;4954258;28;20459;-64
2023/07/14 09:25:25;;;;;;;1019.10;906.80;;;;;;;;;;4966931;28;20431;-64
2023/07/14 09:27:53;;;;;;;1022.47;909.35;;;;;;;;;;4948840;28;20553;-65
2023/07/14 09:30:22;;;;;;;981.00;865.67;;;;;;;;;;4952569;28;20435;-64
2023/07/14 09:32:51;;;;;;;996.75;886.83;;;;;;;;;;4948152;28;20442;-64
2023/07/14 09:35:21;;;;;;;1023.80;911.63;;;;;;;;;;4940968;29;20526;-64
2023/07/14 09:37:53;;;;;;;1030.85;918.17;;;;;;;;;;4945643;28;20476;-65
2023/07/14 09:40:22;;;;;;;1021.25;909.53;;;;;;;;;;4962435;28;21042;-65
2023/07/14 09:42:53;;;;;;;1057.60;944.40;;;;;;;;;;4939415;28;20451;-63
2023/07/14 09:45:22;;;;;;;1059.22;946.33;;;;;;;;;;4938756;28;20447;-63
2023/07/14 09:48:01;;;;;;;1066.22;952.55;;;;;;;;;;4943938;28;20916;-62
2023/07/14 09:50:31;;;;;;;1056.07;942.17;;;;;;;;;;4946107;28;20452;-65
2023/07/14 09:53:05;;;;;;;1050.63;936.83;;;;;;;;;;4958640;28;20464;-64
2023/07/14 09:55:54;;;;;;;1056.13;942.95;;;;;;;;;;5022375;28;20484;-64
2023/07/14 09:58:22;;;;;;;1069.43;955.30;;;;;;;;;;5030563;28;20982;-64
2023/07/14 10:00:50;;;;;;;1067.95;954.13;;;;;;;;;;5021488;28;20469;-63
2023/07/14 10:03:19;;;;;;;1052.18;939.53;;;;;;;;;;5020225;28;20461;-64
2023/07/14 10:06:13;;;;;;;1043.45;930.45;;;;;;;;;;5026536;28;20427;-66
2023/07/14 10:08:44;;;;;;;1021.95;910.55;;;;;;;;;;5028217;28;20427;-65
2023/07/14 10:11:23;;;;;;;1015.13;904.40;;;;;;;;;;5032797;28;20435;-64
2023/07/14 10:13:52;;;;;;;1039.70;927.10;;;;;;;;;;5019843;28;20571;-64
2023/07/14 10:16:20;;;;;;;1040.93;928.63;;;;;;;;;;5037836;28;20455;-65
2023/07/14 10:18:55;;;;;;;1028.97;917.15;;;;;;;;;;5021273;28;20436;-64
2023/07/14 10:21:35;;;;;;;1032.47;920.43;;;;;;;;;;5022470;28;20513;-64
2023/07/14 10:24:05;;;;;;;1034.60;923.42;;;;;;;;;;4998341;28;20807;-64
2023/07/14 10:26:34;;;;;;;1005.00;895.38;;;;;;;;;;5027393;28;20451;-64
2023/07/14 10:29:06;;;;;;;1057.70;943.90;;;;;;;;;;5023039;28;20531;-64
2023/07/14 10:31:40;;;;;;;1030.72;920.92;;;;;;;;;;5007359;28;20442;-64
2023/07/14 10:34:18;;;;;;;1041.03;930.45;;;;;;;;;;5024503;28;20471;-64
2023/07/14 10:36:46;;;;;;;919.80;798.33;;;;;;;;;;5022331;28;20466;-64
2023/07/14 10:39:36;;;;;;;966.42;860.38;;;;;;;;;;5024650;28;20437;-64
2023/07/14 10:42:09;;;;;;;1039.47;927.40;;;;;;;;;;5024440;28;20448;-64
2023/07/14 10:44:38;;;;;;;972.10;864.33;;;;;;;;;;4997969;28;20434;-64
2023/07/14 10:47:14;;;;;;;973.67;863.87;;;;;;;;;;5019625;28;20440;-64
2023/07/14 10:49:48;;;;;;;962.72;853.90;;;;;;;;;;5023682;28;20431;-64
2023/07/14 10:52:20;;;;;;;1004.88;895.55;;;;;;;;;;5022797;28;20526;-65
2023/07/14 10:54:52;;;;;;;997.83;888.53;;;;;;;;;;5022105;28;20462;-64
2023/07/14 10:57:33;;;;;;;944.88;819.72;;;;;;;;;;5025694;28;21003;-65
2023/07/14 11:00:19;;;;;;;997.67;887.15;;;;;;;;;;5023763;28;20995;-63
2023/07/14 11:02:53;;;;;;;986.75;877.95;;;;;;;;;;5024808;28;20434;-64
2023/07/14 11:05:27;;;;;;;982.97;866.60;;;;;;;;;;5021821;28;20431;-64
2023/07/14 11:07:55;;;;;;;938.75;800.17;;;;;;;;;;5020733;28;20430;-63
2023/07/14 11:10:29;;;;;;;941.28;812.42;;;;;;;;;;5021932;28;20431;-63
2023/07/14 11:13:01;;;;;;;932.17;799.33;;;;;;;;;;5023120;28;20427;-64
2023/07/14 11:15:46;;;;;;;959.83;832.28;;;;;;;;;;5024680;28;20516;-65
2023/07/14 11:18:32;;;;;;;961.15;833.80;;;;;;;;;;5025846;28;20443;-63
2023/07/14 11:21:12;;;;;;;963.67;836.13;;;;;;;;;;5023438;28;20434;-63
2023/07/14 11:23:48;;;;;;;973.95;852.67;;;;;;;;;;5022709;28;20892;-63
2023/07/14 11:26:38;;;;;;;971.10;850.90;;;;;;;;;;5025367;28;20444;-63
2023/07/14 11:29:13;;;;;;;965.47;834.53;;;;;;;;;;5021607;28;20968;-63
2023/07/14 11:31:45;;;;;;;971.60;844.65;;;;;;;;;;5021592;28;20755;-63
2023/07/14 11:34:16;;;;;;;976.15;857.10;;;;;;;;;;5020388;28;20440;-63
2023/07/14 11:36:50;;;;;;;971.25;845.88;;;;;;;;;;5020568;28;20955;-63
2023/07/14 11:39:18;;;;;;;982.72;866.25;;;;;;;;;;5011481;28;20466;-63
2023/07/14 11:41:49;;;;;;;1001.65;891.00;;;;;;;;;;5023766;28;20426;-64
2023/07/14 11:44:21;;;;;;;999.58;888.92;;;;;;;;;;5010064;28;20428;-64
2023/07/14 11:46:49;;;;;;;1009.70;898.67;;;;;;;;;;5028984;28;20454;-66
2023/07/14 11:49:32;;;;;;;999.15;888.75;;;;;;;;;;5029125;28;20514;-64
2023/07/14 11:52:09;;;;;;;942.10;820.97;;;;;;;;;;5023490;28;20463;-64
2023/07/14 11:54:54;;;;;;;988.55;880.33;;;;;;;;;;5029321;28;20431;-65
2023/07/14 11:57:22;;;;;;;992.13;883.15;;;;;;;;;;5024651;28;20430;-65
2023/07/14 12:00:00;;;;;;;1013.15;902.80;;;;;;;;;;5020511;28;20438;-66
2023/07/14 12:02:35;;;;;;;1026.97;916.00;;;;;;;;;;5016996;28;20431;-66
2023/07/14 12:05:15;;;;;;;1021.58;910.75;;;;;;;;;;5021539;28;20429;-65
2023/07/14 12:08:01;;;;;;;962.90;856.20;;;;;;;;;;5015936;28;20427;-64
2023/07/14 12:10:41;;;;;;;984.90;876.67;;;;;;;;;;5025088;28;20444;-64
2023/07/14 12:13:17;;;;;;;975.47;867.97;;;;;;;;;;5023553;28;20466;-65
2023/07/14 12:15:48;;;;;;;976.40;868.53;;;;;;;;;;5021841;28;20489;-65
2023/07/14 12:18:34;;;;;;;959.72;848.63;;;;;;;;;;5027642;28;20517;-65
2023/07/14 12:21:14;;;;;;;974.13;866.58;;;;;;;;;;5023748;28;20489;-65
2023/07/14 12:23:49;;;;;;;966.97;857.60;;;;;;;;;;5021725;28;20453;-64
2023/07/14 12:26:29;;;;;;;968.67;855.92;;;;;;;;;;5017992;28;20439;-64
2023/07/14 12:28:56;;;;;;;976.88;820.83;;;;;;;;;;5023033;28;20434;-64
2023/07/14 12:31:23;;;;;;;977.47;869.20;;;;;;;;;;5019582;28;20516;-64
2023/07/14 12:33:55;;;;;;;988.45;879.35;;;;;;;;;;5025604;28;20430;-66
2023/07/14 12:36:24;;;;;;;987.65;878.63;;;;;;;;;;5024490;28;20429;-64
2023/07/14 12:38:52;;;;;;;989.15;880.30;;;;;;;;;;5021458;28;20434;-65
2023/07/14 12:41:20;;;;;;;1019.10;908.85;;;;;;;;;;5024817;28;20459;-65
2023/07/14 12:43:50;;;;;;;1038.40;926.88;;;;;;;;;;5019600;28;20465;-64
2023/07/14 12:46:21;;;;;;;1035.33;923.83;;;;;;;;;;5029567;28;20995;-64
2023/07/14 12:48:49;;;;;;;1042.38;930.47;;;;;;;;;;5024527;28;22716;-65
2023/07/14 12:51:19;;;;;;;1040.43;928.78;;;;;;;;;;5027447;28;20438;-64
2023/07/14 12:53:57;;;;;;;967.45;860.30;;;;;;;;;;5030110;28;20927;-65
2023/07/14 12:56:27;;;;;;;1065.47;951.85;;;;;;;;;;5027071;28;20444;-65
2023/07/14 12:58:57;;;;;;;982.13;873.90;;;;;;;;;;5024874;28;20437;-65
2023/07/14 13:01:24;;;;;;;991.55;882.45;;;;;;;;;;5024680;28;20432;-65
2023/07/14 13:03:52;;;;;;;980.35;872.05;;;;;;;;;;5024277;28;20427;-67
2023/07/14 13:06:22;;;;;;;1044.40;931.92;;;;;;;;;;5027315;28;20436;-64
2023/07/14 13:08:50;;;;;;;1007.83;896.50;;;;;;;;;;5032479;28;20577;-65
2023/07/14 13:11:19;;;;;;;1038.47;926.13;;;;;;;;;;5012724;28;20485;-66
2023/07/14 13:13:50;;;;;;;1035.28;922.92;;;;;;;;;;5029399;28;20443;-66
2023/07/14 13:16:18;;;;;;;961.63;838.95;;;;;;;;;;5022429;28;20896;-65
2023/07/14 13:18:55;;;;;;;978.92;864.67;;;;;;;;;;5034552;28;20866;-64
2023/07/14 13:21:37;;;;;;;942.15;820.25;;;;;;;;;;5025294;28;20447;-64
2023/07/14 13:24:15;;;;;;;949.72;824.55;;;;;;;;;;5009198;28;20434;-62
2023/07/14 13:26:47;;;;;;;959.72;840.08;;;;;;;;;;5007491;28;20428;-65
2023/07/14 13:29:15;;;;;;;956.67;835.50;;;;;;;;;;5029005;28;20909;-65
2023/07/14 13:31:42;;;;;;;957.10;834.85;;;;;;;;;;5021463;28;20434;-64
2023/07/14 13:34:32;;;;;;;961.27;841.20;;;;;;;;;;5024531;28;20442;-66
2023/07/14 13:37:06;;;;;;;972.85;863.03;;;;;;;;;;5025631;28;20440;-67
2023/07/14 13:39:40;;;;;;;968.05;850.83;;;;;;;;;;5023157;28;20509;-65
2023/07/14 13:42:24;;;;;;;977.67;868.88;;;;;;;;;;5029428;28;20427;-64
2023/07/14 13:44:52;;;;;;;1010.23;899.70;;;;;;;;;;5029224;28;20427;-65
2023/07/14 13:47:24;;;;;;;997.08;887.42;;;;;;;;;;5010355;28;20437;-66
2023/07/14 13:49:59;;;;;;;1006.17;895.92;;;;;;;;;;5027902;28;20438;-65
2023/07/14 13:52:33;;;;;;;1016.58;905.42;;;;;;;;;;5011907;28;20434;-65
2023/07/14 13:55:03;;;;;;;986.60;878.67;;;;;;;;;;5027157;28;20940;-66
2023/07/14 13:57:31;;;;;;;973.05;865.95;;;;;;;;;;5028241;28;20447;-66
2023/07/14 14:00:00;;;;;;;976.33;869.10;;;;;;;;;;5018165;28;20559;-66
2023/07/14 14:02:35;;;;;;;967.97;861.58;;;;;;;;;;5024674;28;20466;-67
2023/07/14 14:05:03;;;;;;;934.88;809.85;;;;;;;;;;5027888;28;20457;-65
2023/07/14 14:07:31;;;;;;;766.97;616.83;;;;;;;;;;5026187;28;20434;-65
2023/07/14 14:10:02;;;;;;;959.83;843.60;;;;;;;;;;5027700;28;20521;-64